createdAt,value
2023-05-17T00:02:06.308Z,102226.81
2023-05-17T00:04:33.651Z,102216.69
2023-05-17T00:07:00.439Z,102254.59
2023-05-17T00:09:27.046Z,102260.63
2023-05-17T00:11:53.580Z,102258.44
2023-05-17T00:14:20.341Z,102260.28
2023-05-17T00:16:46.917Z,102242.84
2023-05-17T00:19:13.806Z,102252.84
2023-05-17T00:21:40.625Z,102268.81
2023-05-17T00:24:07.296Z,102253.66
2023-05-17T00:26:33.919Z,102165.66
2023-05-17T00:29:00.660Z,102192.84
2023-05-17T00:31:27.357Z,102257.75
2023-05-17T00:33:53.980Z,102248.22
2023-05-17T00:36:20.931Z,102243.22
2023-05-17T00:38:47.528Z,102259.75
2023-05-17T00:41:14.110Z,102253.28
2023-05-17T00:43:40.959Z,102255.22
2023-05-17T00:46:07.931Z,102226.06
2023-05-17T00:48:35.890Z,102251.22
2023-05-17T00:51:02.851Z,102247.50
2023-05-17T00:53:30.175Z,102254.47
2023-05-17T00:55:56.907Z,102257.94
2023-05-17T00:58:24.154Z,102255.91
2023-05-17T01:00:52.122Z,102255.00
2023-05-17T01:03:18.941Z,102211.47
2023-05-17T01:05:45.664Z,102253.41
2023-05-17T01:08:12.223Z,102261.56
2023-05-17T01:11:13.485Z,102273.00
2023-05-17T01:13:56.640Z,102259.09
2023-05-17T01:16:31.122Z,102259.38
2023-05-17T01:19:19.728Z,102261.75
2023-05-17T01:21:55.565Z,102260.84
2023-05-17T01:24:57.784Z,102249.56
2023-05-17T01:27:26.667Z,102237.28
2023-05-17T01:29:56.308Z,102255.75
2023-05-17T01:32:25.059Z,102218.91
2023-05-17T01:34:52.141Z,102206.63
2023-05-17T01:37:18.868Z,102231.50
2023-05-17T01:39:46.535Z,102232.56
2023-05-17T01:42:21.969Z,102244.84
2023-05-17T01:45:18.588Z,102249.75
2023-05-17T01:47:47.711Z,102262.81
2023-05-17T01:50:17.518Z,102241.97
2023-05-17T01:52:55.240Z,102236.34
2023-05-17T01:55:24.524Z,102251.94
2023-05-17T01:57:55.818Z,102232.53
2023-05-17T02:00:25.800Z,102246.13
2023-05-17T02:02:52.493Z,102230.47
2023-05-17T02:05:22.368Z,102142.59
2023-05-17T02:07:48.941Z,102236.53
2023-05-17T02:10:17.441Z,102249.78
2023-05-17T02:12:44.127Z,102229.81
2023-05-17T02:15:12.080Z,102201.59
2023-05-17T02:17:40.641Z,102155.59
2023-05-17T02:20:08.789Z,102162.41
2023-05-17T02:22:35.845Z,102250.03
2023-05-17T02:25:02.581Z,102240.91
2023-05-17T02:27:29.378Z,102244.66
2023-05-17T02:29:56.076Z,102246.41
2023-05-17T02:32:23.000Z,102207.59
2023-05-17T02:34:49.740Z,102188.88
2023-05-17T02:37:16.375Z,102268.41
2023-05-17T02:39:44.318Z,102269.75
2023-05-17T02:42:11.284Z,102252.50
2023-05-17T02:44:37.937Z,102246.88
2023-05-17T02:47:04.846Z,102249.09
2023-05-17T02:49:31.610Z,102265.47
2023-05-17T02:51:58.324Z,102234.53
2023-05-17T02:54:25.005Z,102273.59
2023-05-17T02:56:51.797Z,102259.00
2023-05-17T02:59:18.518Z,102267.41
2023-05-17T03:01:45.189Z,102172.47
2023-05-17T03:04:12.511Z,102259.63
2023-05-17T03:06:40.211Z,102290.53
2023-05-17T03:09:07.264Z,102277.16
2023-05-17T03:11:34.582Z,102264.69
2023-05-17T03:14:04.138Z,102281.69
2023-05-17T03:16:31.700Z,102281.22
2023-05-17T03:18:59.377Z,102253.44
2023-05-17T03:21:26.075Z,102217.41
2023-05-17T03:23:52.687Z,102265.66
2023-05-17T03:26:19.837Z,102292.44
2023-05-17T03:28:49.878Z,102299.66
2023-05-17T03:31:18.876Z,102309.63
2023-05-17T03:33:46.038Z,102300.38
2023-05-17T03:36:13.942Z,102044.97
2023-05-17T03:38:40.653Z,102303.72
2023-05-17T03:41:08.521Z,102297.91
2023-05-17T03:43:35.247Z,102317.78
2023-05-17T03:46:01.949Z,102320.13
2023-05-17T03:48:29.549Z,102309.00
2023-05-17T03:50:56.219Z,102326.50
2023-05-17T03:53:22.906Z,102325.94
2023-05-17T03:55:49.598Z,102324.41
2023-05-17T03:58:18.175Z,102230.41
2023-05-17T04:00:44.790Z,102303.91
2023-05-17T04:03:16.915Z,102341.34
2023-05-17T04:05:46.547Z,102318.28
2023-05-17T04:08:13.712Z,102331.03
2023-05-17T04:10:42.139Z,102240.00
2023-05-17T04:13:09.622Z,102255.63
2023-05-17T04:15:37.598Z,102345.56
2023-05-17T04:18:05.538Z,102319.50
2023-05-17T04:20:32.326Z,102299.53
2023-05-17T04:23:01.778Z,102337.34
2023-05-17T04:25:31.007Z,102330.44
2023-05-17T04:27:57.900Z,102318.94
2023-05-17T04:30:25.834Z,102238.69
2023-05-17T04:32:52.532Z,102362.81
2023-05-17T04:35:19.281Z,102348.41
2023-05-17T04:37:49.574Z,102360.16
2023-05-17T04:40:21.328Z,102382.88
2023-05-17T04:42:48.943Z,102381.34
2023-05-17T04:45:17.634Z,102377.72
2023-05-17T04:47:44.320Z,102388.72
2023-05-17T04:50:11.584Z,102365.28
2023-05-17T04:52:38.433Z,102375.50
2023-05-17T04:55:05.665Z,102387.16
2023-05-17T04:57:32.357Z,102397.44
2023-05-17T05:00:06.215Z,102387.56
2023-05-17T05:02:33.736Z,102405.03
2023-05-17T05:05:00.971Z,102386.47
2023-05-17T05:07:28.034Z,102393.50
2023-05-17T05:09:54.925Z,102398.69
2023-05-17T05:12:23.112Z,102392.09
2023-05-17T05:14:49.844Z,102311.16
2023-05-17T05:17:16.499Z,102388.84
2023-05-17T05:19:43.243Z,102364.38
2023-05-17T05:22:09.866Z,102406.09
2023-05-17T05:24:38.160Z,102408.09
2023-05-17T05:27:06.939Z,102413.53
2023-05-17T05:29:33.869Z,102248.06
2023-05-17T05:32:00.527Z,102319.88
2023-05-17T05:34:28.531Z,102426.75
2023-05-17T05:36:55.533Z,102413.47
2023-05-17T05:39:22.563Z,102338.50
2023-05-17T05:41:49.892Z,102404.66
2023-05-17T05:44:16.601Z,102416.56
2023-05-17T05:46:43.415Z,102431.00
2023-05-17T05:49:10.392Z,102412.16
2023-05-17T05:51:37.516Z,102403.09
2023-05-17T05:54:04.182Z,102448.03
2023-05-17T05:56:31.611Z,102439.09
2023-05-17T05:58:58.244Z,102447.94
2023-05-17T06:01:25.410Z,102450.38
2023-05-17T06:03:52.038Z,102441.53
2023-05-17T06:06:19.449Z,102458.94
2023-05-17T06:08:47.282Z,102458.38
2023-05-17T06:11:14.308Z,102405.09
2023-05-17T06:13:40.918Z,102473.97
2023-05-17T06:16:07.532Z,102387.06
2023-05-17T06:18:34.168Z,102441.19
2023-05-17T06:21:00.893Z,102378.69
2023-05-17T06:23:27.500Z,102455.53
2023-05-17T06:25:54.117Z,102471.72
2023-05-17T06:28:20.747Z,102474.38
2023-05-17T06:30:47.349Z,102491.13
2023-05-17T06:33:14.070Z,102461.50
2023-05-17T06:35:54.632Z,102465.50
2023-05-17T06:38:22.128Z,102477.84
2023-05-17T06:40:55.636Z,102398.94
2023-05-17T06:43:22.299Z,102473.22
2023-05-17T06:45:48.907Z,102477.72
2023-05-17T06:48:16.214Z,102413.41
2023-05-17T06:50:43.104Z,102476.06
2023-05-17T06:53:09.701Z,102465.22
2023-05-17T06:55:36.618Z,102468.88
2023-05-17T06:58:03.270Z,102343.09
2023-05-17T07:00:30.355Z,102485.44
2023-05-17T07:02:57.265Z,102495.91
2023-05-17T07:05:24.302Z,102488.72
2023-05-17T07:07:50.964Z,102498.19
2023-05-17T07:10:17.546Z,102497.50
2023-05-17T07:12:44.174Z,102501.63
2023-05-17T07:15:11.325Z,102481.06
2023-05-17T07:17:38.097Z,102492.56
2023-05-17T07:20:06.219Z,102456.03
2023-05-17T07:22:33.068Z,102494.47
2023-05-17T07:24:59.710Z,102493.09
2023-05-17T07:27:26.336Z,102507.47
2023-05-17T07:29:53.006Z,102500.44
2023-05-17T07:32:19.577Z,102520.72
2023-05-17T07:34:46.436Z,102511.63
2023-05-17T07:37:13.143Z,102525.09
2023-05-17T07:39:39.949Z,102508.41
2023-05-17T07:42:07.049Z,102519.56
2023-05-17T07:44:33.885Z,102520.41
2023-05-17T07:47:00.633Z,102525.75
2023-05-17T07:49:27.593Z,102523.81
2023-05-17T07:51:55.506Z,102495.56
2023-05-17T07:54:24.892Z,102449.09
2023-05-17T07:56:53.186Z,102541.69
2023-05-17T07:59:19.843Z,102528.72
2023-05-17T08:01:46.626Z,102429.72
2023-05-17T08:04:14.354Z,102453.75
2023-05-17T08:06:41.881Z,102503.34
2023-05-17T08:09:08.479Z,102512.47
2023-05-17T08:11:35.405Z,102546.25
2023-05-17T08:14:01.999Z,102455.19
2023-05-17T08:16:28.611Z,102545.63
2023-05-17T08:18:55.495Z,102550.81
2023-05-17T08:21:22.945Z,102558.84
2023-05-17T08:23:49.556Z,102530.22
2023-05-17T08:26:16.199Z,102530.75
2023-05-17T08:28:42.731Z,102550.19
2023-05-17T08:31:09.290Z,102537.91
2023-05-17T08:33:36.580Z,102557.97
2023-05-17T08:36:07.858Z,102552.28
2023-05-17T08:38:34.692Z,102531.63
2023-05-17T08:41:02.499Z,102544.44
2023-05-17T08:43:31.325Z,102539.50
2023-05-17T08:45:59.155Z,102547.69
2023-05-17T08:48:27.548Z,102473.63
2023-05-17T08:50:56.327Z,102535.22
2023-05-17T08:53:24.355Z,102542.22
2023-05-17T08:55:52.278Z,102538.06
2023-05-17T08:58:26.855Z,102534.16
2023-05-17T09:00:54.812Z,102544.59
2023-05-17T09:03:22.579Z,102472.06
2023-05-17T09:05:53.521Z,102536.31
2023-05-17T09:08:22.446Z,102480.50
2023-05-17T09:10:50.139Z,102529.13
2023-05-17T09:13:17.120Z,102549.03
2023-05-17T09:15:47.823Z,102529.16
2023-05-17T09:18:17.019Z,102488.31
2023-05-17T09:20:51.534Z,102486.34
2023-05-17T09:23:21.376Z,102538.06
2023-05-17T09:25:49.075Z,102520.19
2023-05-17T09:28:18.817Z,102506.72
2023-05-17T09:30:48.375Z,102534.50
2023-05-17T09:33:17.660Z,102532.56
2023-05-17T09:35:45.561Z,102525.50
2023-05-17T09:38:13.684Z,102540.03
2023-05-17T09:40:45.094Z,102529.09
2023-05-17T09:43:13.017Z,102542.38
2023-05-17T09:45:40.200Z,102531.88
2023-05-17T09:48:13.761Z,102537.28
2023-05-17T09:50:49.545Z,102529.16
2023-05-17T09:53:28.255Z,102539.09
2023-05-17T09:55:59.799Z,102535.47
2023-05-17T09:58:28.672Z,102533.50
2023-05-17T10:01:03.625Z,102520.19
2023-05-17T10:03:33.173Z,102537.34
2023-05-17T10:06:03.769Z,102519.19
2023-05-17T10:08:31.777Z,102531.81
2023-05-17T10:11:03.433Z,102519.28
2023-05-17T10:13:54.457Z,102521.03
2023-05-17T10:16:23.460Z,102527.22
2023-05-17T10:18:50.911Z,102533.72
2023-05-17T10:21:18.613Z,102522.06
2023-05-17T10:23:47.425Z,102470.56
2023-05-17T10:26:16.132Z,102459.44
2023-05-17T10:28:43.357Z,102526.31
2023-05-17T10:31:10.223Z,102524.72
2023-05-17T10:33:37.394Z,102477.84
2023-05-17T10:36:06.562Z,102535.50
2023-05-17T10:38:41.777Z,102511.25
2023-05-17T10:41:15.033Z,102458.09
2023-05-17T10:43:43.604Z,102520.28
2023-05-17T10:46:16.399Z,102514.16
2023-05-17T10:48:44.447Z,102513.28
2023-05-17T10:51:12.024Z,102513.53
2023-05-17T10:54:11.846Z,102517.22
2023-05-17T10:56:47.276Z,102515.06
2023-05-17T10:59:26.672Z,102465.63
2023-05-17T11:02:04.498Z,102517.81
2023-05-17T11:04:42.284Z,102518.97
2023-05-17T11:07:27.914Z,102506.22
2023-05-17T11:10:07.916Z,102505.69
2023-05-17T11:12:37.607Z,102504.56
2023-05-17T11:15:10.457Z,102513.88
2023-05-17T11:17:51.346Z,102426.66
2023-05-17T11:20:24.069Z,102501.28
2023-05-17T11:23:05.020Z,102383.13
2023-05-17T11:25:39.530Z,102506.41
2023-05-17T11:28:08.792Z,102484.31
2023-05-17T11:30:41.357Z,102442.50
2023-05-17T11:33:20.393Z,102500.53
2023-05-17T11:35:54.612Z,102515.53
2023-05-17T11:38:30.303Z,102508.09
2023-05-17T11:40:57.793Z,102496.28
2023-05-17T11:43:27.240Z,102463.31
2023-05-17T11:45:57.364Z,102447.03
2023-05-17T11:48:26.104Z,102502.50
2023-05-17T11:50:55.015Z,102426.56
2023-05-17T11:53:22.009Z,102502.28
2023-05-17T11:55:52.981Z,102499.84
2023-05-17T11:58:24.150Z,102440.38
2023-05-17T12:00:55.862Z,102483.59
2023-05-17T12:03:22.457Z,102493.72
2023-05-17T12:06:10.468Z,102494.94
2023-05-17T12:08:39.228Z,102434.06
2023-05-17T12:11:07.285Z,102483.75
2023-05-17T12:13:35.612Z,102441.81
2023-05-17T12:16:05.869Z,102492.47
2023-05-17T12:18:37.893Z,102488.81
2023-05-17T12:21:05.753Z,102480.41
2023-05-17T12:23:33.635Z,102492.72
2023-05-17T12:26:16.607Z,102485.41
2023-05-17T12:28:46.260Z,102485.13
2023-05-17T12:31:16.771Z,102457.22
2023-05-17T12:33:45.342Z,102482.91
2023-05-17T12:36:13.826Z,102414.41
2023-05-17T12:38:42.342Z,102468.44
2023-05-17T12:41:12.430Z,102457.03
2023-05-17T12:43:40.149Z,102457.81
2023-05-17T12:46:08.834Z,102457.63
2023-05-17T12:48:40.543Z,102466.53
2023-05-17T12:51:14.626Z,102462.00
2023-05-17T12:53:44.941Z,102476.22
2023-05-17T12:56:16.911Z,102467.50
2023-05-17T12:58:44.525Z,102465.63
2023-05-17T13:01:14.370Z,102456.72
2023-05-17T13:03:41.796Z,102406.84
2023-05-17T13:06:10.253Z,102456.88
2023-05-17T13:08:37.042Z,102462.13
2023-05-17T13:11:13.539Z,102448.03
2023-05-17T13:13:41.506Z,102454.22
2023-05-17T13:16:08.444Z,102406.41
2023-05-17T13:18:52.015Z,102389.13
2023-05-17T13:21:20.424Z,102462.00
2023-05-17T13:23:48.852Z,102400.38
2023-05-17T13:26:17.330Z,102454.44
2023-05-17T13:28:44.614Z,102454.84
2023-05-17T13:31:11.435Z,102409.59
2023-05-17T13:33:38.418Z,102439.78
2023-05-17T13:36:05.520Z,102388.31
2023-05-17T13:38:32.089Z,102428.13
2023-05-17T13:40:58.705Z,102429.81
2023-05-17T13:43:25.294Z,102382.84
2023-05-17T13:45:56.688Z,102362.88
2023-05-17T13:48:23.464Z,102426.91
2023-05-17T13:50:50.971Z,102425.47
2023-05-17T13:53:18.085Z,102432.66
2023-05-17T13:55:44.933Z,102423.41
2023-05-17T13:58:11.729Z,102437.06
2023-05-17T14:00:41.275Z,102431.69
2023-05-17T14:03:08.498Z,102436.22
2023-05-17T14:05:36.545Z,102429.69
2023-05-17T14:08:03.531Z,102432.22
2023-05-17T14:10:30.610Z,102373.88
2023-05-17T14:12:57.393Z,102415.41
2023-05-17T14:15:24.599Z,102456.81
2023-05-17T14:17:51.589Z,102287.66
2023-05-17T14:20:18.511Z,102438.91
2023-05-17T14:22:45.848Z,102430.53
2023-05-17T14:25:12.486Z,102447.94
2023-05-17T14:27:39.084Z,102441.81
2023-05-17T14:30:06.327Z,102447.78
2023-05-17T14:32:33.002Z,102348.47
2023-05-17T14:34:59.598Z,102452.69
2023-05-17T14:37:26.223Z,102441.50
2023-05-17T14:40:05.776Z,102402.44
2023-05-17T14:42:33.706Z,102366.25
2023-05-17T14:45:00.533Z,102434.09
2023-05-17T14:47:27.246Z,102426.88
2023-05-17T14:49:53.813Z,102418.22
2023-05-17T14:52:20.692Z,102435.81
2023-05-17T14:54:47.341Z,102446.94
2023-05-17T14:57:13.984Z,102427.38
2023-05-17T14:59:43.206Z,102385.78
2023-05-17T15:02:11.639Z,102444.28
2023-05-17T15:04:38.550Z,102444.50
2023-05-17T15:07:05.986Z,102377.22
2023-05-17T15:09:32.664Z,102402.91
2023-05-17T15:11:59.271Z,102371.66
2023-05-17T15:14:27.041Z,102424.47
2023-05-17T15:16:53.672Z,102382.63
2023-05-17T15:19:20.476Z,102447.34
2023-05-17T15:21:47.215Z,102375.22
2023-05-17T15:24:15.953Z,102385.00
2023-05-17T15:26:44.428Z,102453.34
2023-05-17T15:29:11.615Z,102463.22
2023-05-17T15:31:38.230Z,102409.28
2023-05-17T15:34:04.957Z,102368.25
2023-05-17T15:36:32.541Z,102454.53
2023-05-17T15:38:59.175Z,102450.00
2023-05-17T15:41:29.753Z,102456.16
2023-05-17T15:43:57.159Z,102459.53
2023-05-17T15:46:23.853Z,102421.59
2023-05-17T15:48:50.392Z,102458.00
2023-05-17T15:51:17.111Z,102432.75
2023-05-17T15:53:43.763Z,102432.72
2023-05-17T15:56:11.305Z,102444.41
2023-05-17T15:58:37.864Z,102430.31
2023-05-17T16:01:05.618Z,102447.06
2023-05-17T16:03:33.086Z,102381.50
2023-05-17T16:05:59.810Z,102428.06
2023-05-17T16:08:26.505Z,102442.41
2023-05-17T16:10:53.113Z,102445.88
2023-05-17T16:13:19.709Z,102446.56
2023-05-17T16:15:46.466Z,102423.72
2023-05-17T16:18:15.010Z,102439.34
2023-05-17T16:20:42.594Z,102378.25
2023-05-17T16:23:09.573Z,102448.88
2023-05-17T16:25:36.573Z,102443.38
2023-05-17T16:28:03.230Z,102457.34
2023-05-17T16:30:29.893Z,102387.38
2023-05-17T16:32:56.546Z,102446.22
2023-05-17T16:35:23.177Z,102451.25
2023-05-17T16:37:50.245Z,102463.22
2023-05-17T16:40:16.975Z,102449.94
2023-05-17T16:42:44.518Z,102442.78
2023-05-17T16:45:11.448Z,102360.94
2023-05-17T16:47:38.175Z,102456.25
2023-05-17T16:50:06.622Z,102451.78
2023-05-17T16:52:33.236Z,102397.03
2023-05-17T16:55:03.358Z,102376.34
2023-05-17T16:57:34.026Z,102465.31
2023-05-17T17:00:01.091Z,102439.13
2023-05-17T17:02:28.535Z,102470.75
2023-05-17T17:04:55.606Z,102461.78
2023-05-17T17:07:22.220Z,102460.72
2023-05-17T17:09:48.778Z,102457.78
2023-05-17T17:12:24.046Z,102411.84
2023-05-17T17:14:52.429Z,102459.47
2023-05-17T17:17:18.985Z,102480.19
2023-05-17T17:19:45.539Z,102473.88
2023-05-17T17:22:14.184Z,102471.59
2023-05-17T17:24:40.832Z,102393.53
2023-05-17T17:27:07.455Z,102415.72
2023-05-17T17:29:34.055Z,102497.19
2023-05-17T17:32:00.994Z,102498.44
2023-05-17T17:34:27.719Z,102478.84
2023-05-17T17:36:54.602Z,102489.06
2023-05-17T17:39:21.264Z,102472.66
2023-05-17T17:41:47.964Z,102476.84
2023-05-17T17:44:14.497Z,102491.69
2023-05-17T17:46:41.134Z,102451.63
2023-05-17T17:49:07.800Z,102504.53
2023-05-17T17:51:34.419Z,102465.47
2023-05-17T17:54:03.626Z,102463.53
2023-05-17T17:56:30.424Z,102490.94
2023-05-17T17:58:57.169Z,102360.53
2023-05-17T18:01:23.961Z,102496.00
2023-05-17T18:03:50.615Z,102505.59
2023-05-17T18:06:17.197Z,102398.88
2023-05-17T18:08:43.840Z,102507.34
2023-05-17T18:11:10.435Z,102506.19
2023-05-17T18:13:37.150Z,102434.03
2023-05-17T18:16:04.166Z,102517.50
2023-05-17T18:18:30.755Z,102497.72
2023-05-17T18:20:57.556Z,102481.53
2023-05-17T18:23:24.755Z,102516.16
2023-05-17T18:25:51.475Z,102509.13
2023-05-17T18:28:21.682Z,102510.78
2023-05-17T18:30:58.118Z,102421.81
2023-05-17T18:33:25.306Z,102396.63
2023-05-17T18:35:51.943Z,102427.47
2023-05-17T18:38:18.888Z,102481.38
2023-05-17T18:40:45.672Z,102516.91
2023-05-17T18:43:12.911Z,102490.94
2023-05-17T18:45:39.579Z,102470.56
2023-05-17T18:48:06.410Z,102508.81
2023-05-17T18:50:33.239Z,102453.97
2023-05-17T18:53:00.573Z,102524.84
2023-05-17T18:55:27.237Z,102518.00
2023-05-17T18:57:54.031Z,102521.06
2023-05-17T19:00:21.188Z,102522.06
2023-05-17T19:02:48.172Z,102503.44
2023-05-17T19:05:14.970Z,102452.72
2023-05-17T19:07:41.504Z,102541.97
2023-05-17T19:10:08.563Z,102546.69
2023-05-17T19:12:35.582Z,102533.63
2023-05-17T19:15:03.863Z,102442.47
2023-05-17T19:17:30.816Z,102554.03
2023-05-17T19:19:57.551Z,102529.00
2023-05-17T19:22:24.143Z,102552.78
2023-05-17T19:24:50.797Z,102434.66
2023-05-17T19:27:19.696Z,102523.88
2023-05-17T19:29:47.764Z,102562.06
2023-05-17T19:32:14.452Z,102555.28
2023-05-17T19:34:41.352Z,102536.78
2023-05-17T19:37:07.964Z,102564.44
2023-05-17T19:39:34.538Z,102556.75
2023-05-17T19:42:01.185Z,102536.44
2023-05-17T19:44:27.746Z,102573.22
2023-05-17T19:46:54.465Z,102562.09
2023-05-17T19:49:21.469Z,102441.38
2023-05-17T19:51:48.184Z,102473.56
2023-05-17T19:54:14.905Z,102572.84
2023-05-17T19:56:41.591Z,102570.13
2023-05-17T19:59:08.274Z,102485.50
2023-05-17T20:01:34.959Z,102571.38
2023-05-17T20:04:01.717Z,102580.25
2023-05-17T20:06:28.492Z,102474.72
2023-05-17T20:08:55.103Z,102481.69
2023-05-17T20:11:21.903Z,102578.72
2023-05-17T20:13:48.484Z,102548.53
2023-05-17T20:16:15.140Z,102591.56
2023-05-17T20:18:43.444Z,102462.44
2023-05-17T20:21:12.519Z,102486.03
2023-05-17T20:23:40.446Z,102565.44
2023-05-17T20:26:07.112Z,102534.47
2023-05-17T20:28:33.772Z,102550.50
2023-05-17T20:31:00.800Z,102576.19
2023-05-17T20:33:27.572Z,102560.00
2023-05-17T20:35:54.212Z,102458.25
2023-05-17T20:38:21.543Z,102569.78
2023-05-17T20:40:48.261Z,102528.72
2023-05-17T20:43:16.705Z,102554.75
2023-05-17T20:45:43.569Z,102557.19
2023-05-17T20:48:10.318Z,102561.66
2023-05-17T20:50:37.118Z,102571.16
2023-05-17T20:53:03.808Z,102553.00
2023-05-17T20:55:30.480Z,102578.19
2023-05-17T20:57:57.626Z,102566.94
2023-05-17T21:00:24.690Z,102579.78
2023-05-17T21:02:51.502Z,102564.97
2023-05-17T21:05:18.181Z,102572.16
2023-05-17T21:07:46.655Z,102473.34
2023-05-17T21:10:13.381Z,102534.75
2023-05-17T21:12:40.099Z,102563.66
2023-05-17T21:15:15.804Z,102534.31
2023-05-17T21:17:45.338Z,102559.19
2023-05-17T21:20:12.291Z,102565.16
2023-05-17T21:22:38.941Z,102592.19
2023-05-17T21:25:06.125Z,102569.19
2023-05-17T21:27:33.946Z,102467.78
2023-05-17T21:30:01.503Z,102493.03
2023-05-17T21:32:28.155Z,102555.50
2023-05-17T21:34:54.714Z,102590.75
2023-05-17T21:37:21.411Z,102580.63
2023-05-17T21:39:47.996Z,102593.03
2023-05-17T21:42:14.566Z,102573.94
2023-05-17T21:44:41.181Z,102471.81
2023-05-17T21:47:07.925Z,102589.59
2023-05-17T21:49:34.720Z,102556.25
2023-05-17T21:52:01.314Z,102600.19
2023-05-17T21:54:27.837Z,102544.91
2023-05-17T21:56:54.411Z,102569.47
2023-05-17T21:59:21.005Z,102579.22
2023-05-17T22:01:47.676Z,102579.06
2023-05-17T22:04:14.315Z,102572.75
2023-05-17T22:06:40.936Z,102587.56
2023-05-17T22:09:09.385Z,102565.19
2023-05-17T22:11:38.369Z,102584.03
2023-05-17T22:14:07.966Z,102507.63
2023-05-17T22:16:36.064Z,102582.28
2023-05-17T22:19:03.882Z,102565.31
2023-05-17T22:21:32.120Z,102508.63
2023-05-17T22:23:59.400Z,102599.19
2023-05-17T22:26:27.662Z,102566.97
2023-05-17T22:28:54.612Z,102559.41
2023-05-17T22:31:21.433Z,102572.88
2023-05-17T22:33:48.110Z,102487.44
2023-05-17T22:36:14.787Z,102480.91
2023-05-17T22:38:42.657Z,102587.78
2023-05-17T22:41:10.723Z,102571.41
2023-05-17T22:43:37.921Z,102597.38
2023-05-17T22:46:05.019Z,102565.47
2023-05-17T22:48:32.362Z,102544.41
2023-05-17T22:51:00.810Z,102610.09
2023-05-17T22:53:29.058Z,102561.19
2023-05-17T22:55:56.102Z,102586.47
2023-05-17T22:58:25.839Z,102529.81
2023-05-17T23:00:52.728Z,102596.06
2023-05-17T23:03:19.604Z,102553.09
2023-05-17T23:05:46.303Z,102574.59
2023-05-17T23:08:15.426Z,102608.78
2023-05-17T23:10:45.767Z,102577.81
2023-05-17T23:13:12.845Z,102593.75
2023-05-17T23:15:40.632Z,102589.13
2023-05-17T23:18:08.493Z,102512.53
2023-05-17T23:20:35.173Z,102591.75
2023-05-17T23:23:02.070Z,102600.59
2023-05-17T23:25:28.934Z,102603.81
2023-05-17T23:27:58.049Z,102606.94
2023-05-17T23:30:25.107Z,102519.84
2023-05-17T23:32:52.560Z,102614.38
2023-05-17T23:35:19.145Z,102574.38
2023-05-17T23:37:45.808Z,102604.22
2023-05-17T23:40:14.616Z,102622.81
2023-05-17T23:42:41.771Z,102595.88
2023-05-17T23:45:09.809Z,102586.78
2023-05-17T23:47:40.813Z,102599.50
2023-05-17T23:50:11.975Z,102583.53
2023-05-17T23:52:39.631Z,102571.81
2023-05-17T23:55:07.435Z,102578.66
2023-05-17T23:57:35.186Z,102612.13
